sensor_id;sensor_type;location;lat;lon;timestamp;temperature;humidity
2913;DHT22;1466;48.778;9.166;2023-06-22T00:00:55;25.20;99.90
2913;DHT22;1466;48.778;9.166;2023-06-22T00:03:22;25.20;99.90
2913;DHT22;1466;48.778;9.166;2023-06-22T00:05:48;25.20;99.90
2913;DHT22;1466;48.778;9.166;2023-06-22T00:08:15;25.10;99.90
2913;DHT22;1466;48.778;9.166;2023-06-22T00:10:41;25.10;99.90
2913;DHT22;1466;48.778;9.166;2023-06-22T00:13:08;25.10;99.90
2913;DHT22;1466;48.778;9.166;2023-06-22T00:15:34;25.10;99.90
2913;DHT22;1466;48.778;9.166;2023-06-22T00:18:00;25.10;99.90
2913;DHT22;1466;48.778;9.166;2023-06-22T00:20:26;25.10;99.90
2913;DHT22;1466;48.778;9.166;2023-06-22T00:22:59;25.00;99.90
2913;DHT22;1466;48.778;9.166;2023-06-22T00:25:26;25.00;99.90
2913;DHT22;1466;48.778;9.166;2023-06-22T00:27:51;25.00;99.90
2913;DHT22;1466;48.778;9.166;2023-06-22T00:30:18;24.90;99.90
2913;DHT22;1466;48.778;9.166;2023-06-22T00:32:45;24.80;99.90
2913;DHT22;1466;48.778;9.166;2023-06-22T00:35:12;24.80;99.90
2913;DHT22;1466;48.778;9.166;2023-06-22T00:37:38;24.80;99.90
2913;DHT22;1466;48.778;9.166;2023-06-22T00:40:08;24.80;99.90
2913;DHT22;1466;48.778;9.166;2023-06-22T00:42:36;24.90;99.90
2913;DHT22;1466;48.778;9.166;2023-06-22T00:45:02;24.90;99.90
2913;DHT22;1466;48.778;9.166;2023-06-22T00:47:27;24.90;99.90
2913;DHT22;1466;48.778;9.166;2023-06-22T00:49:53;24.80;99.90
2913;DHT22;1466;48.778;9.166;2023-06-22T00:52:21;24.70;99.90
2913;DHT22;1466;48.778;9.166;2023-06-22T00:54:51;24.60;99.90
2913;DHT22;1466;48.778;9.166;2023-06-22T00:57:18;24.50;99.90
2913;DHT22;1466;48.778;9.166;2023-06-22T00:59:45;24.50;99.90
2913;DHT22;1466;48.778;9.166;2023-06-22T01:02:12;24.60;99.90
2913;DHT22;1466;48.778;9.166;2023-06-22T01:04:39;24.60;99.90
2913;DHT22;1466;48.778;9.166;2023-06-22T01:07:35;24.60;99.90
2913;DHT22;1466;48.778;9.166;2023-06-22T01:13:04;24.70;99.90
2913;DHT22;1466;48.778;9.166;2023-06-22T01:15:39;24.60;99.90
2913;DHT22;1466;48.778;9.166;2023-06-22T01:18:06;24.40;99.90
2913;DHT22;1466;48.778;9.166;2023-06-22T01:20:34;24.40;99.90
2913;DHT22;1466;48.778;9.166;2023-06-22T01:23:23;24.50;99.90
2913;DHT22;1466;48.778;9.166;2023-06-22T01:26:05;24.50;99.90
2913;DHT22;1466;48.778;9.166;2023-06-22T01:28:47;24.50;99.90
2913;DHT22;1466;48.778;9.166;2023-06-22T01:31:16;24.50;99.90
2913;DHT22;1466;48.778;9.166;2023-06-22T01:33:44;24.40;99.90
2913;DHT22;1466;48.778;9.166;2023-06-22T01:36:10;24.40;99.90
2913;DHT22;1466;48.778;9.166;2023-06-22T01:38:37;24.40;99.90
2913;DHT22;1466;48.778;9.166;2023-06-22T01:41:04;24.40;99.90
2913;DHT22;1466;48.778;9.166;2023-06-22T01:43:30;24.40;99.90
2913;DHT22;1466;48.778;9.166;2023-06-22T01:45:57;24.40;99.90
2913;DHT22;1466;48.778;9.166;2023-06-22T01:48:23;24.30;99.90
2913;DHT22;1466;48.778;9.166;2023-06-22T01:50:49;24.30;99.90
2913;DHT22;1466;48.778;9.166;2023-06-22T01:53:14;24.30;99.90
2913;DHT22;1466;48.778;9.166;2023-06-22T01:55:40;24.30;99.90
2913;DHT22;1466;48.778;9.166;2023-06-22T01:58:06;24.30;99.90
2913;DHT22;1466;48.778;9.166;2023-06-22T02:00:38;24.40;99.90
2913;DHT22;1466;48.778;9.166;2023-06-22T02:03:14;24.30;99.90
2913;DHT22;1466;48.778;9.166;2023-06-22T02:05:55;24.20;99.90
2913;DHT22;1466;48.778;9.166;2023-06-22T02:08:29;24.20;99.90
2913;DHT22;1466;48.778;9.166;2023-06-22T02:10:57;24.10;99.90
2913;DHT22;1466;48.778;9.166;2023-06-22T02:13:24;24.10;99.90
2913;DHT22;1466;48.778;9.166;2023-06-22T02:15:50;24.00;99.90
2913;DHT22;1466;48.778;9.166;2023-06-22T02:18:16;24.00;99.90
2913;DHT22;1466;48.778;9.166;2023-06-22T02:20:42;24.00;99.90
2913;DHT22;1466;48.778;9.166;2023-06-22T02:23:08;24.10;99.90
2913;DHT22;1466;48.778;9.166;2023-06-22T02:25:35;24.20;99.90
2913;DHT22;1466;48.778;9.166;2023-06-22T02:28:01;24.10;99.90
2913;DHT22;1466;48.778;9.166;2023-06-22T02:30:26;24.10;99.90
2913;DHT22;1466;48.778;9.166;2023-06-22T02:32:52;24.00;99.90
2913;DHT22;1466;48.778;9.166;2023-06-22T02:35:25;24.10;99.90
2913;DHT22;1466;48.778;9.166;2023-06-22T02:37:51;24.10;99.90
2913;DHT22;1466;48.778;9.166;2023-06-22T02:40:17;24.00;99.90
2913;DHT22;1466;48.778;9.166;2023-06-22T02:42:43;23.90;99.90
2913;DHT22;1466;48.778;9.166;2023-06-22T02:45:09;23.80;99.90
2913;DHT22;1466;48.778;9.166;2023-06-22T02:47:34;23.60;99.90
2913;DHT22;1466;48.778;9.166;2023-06-22T02:50:00;23.60;99.90
2913;DHT22;1466;48.778;9.166;2023-06-22T02:52:26;23.50;99.90
2913;DHT22;1466;48.778;9.166;2023-06-22T02:54:52;23.50;99.90
2913;DHT22;1466;48.778;9.166;2023-06-22T02:57:17;23.50;99.90
2913;DHT22;1466;48.778;9.166;2023-06-22T02:59:43;23.50;99.90
2913;DHT22;1466;48.778;9.166;2023-06-22T03:02:09;23.50;99.90
2913;DHT22;1466;48.778;9.166;2023-06-22T03:04:35;23.50;99.90
2913;DHT22;1466;48.778;9.166;2023-06-22T03:07:02;23.40;99.90
2913;DHT22;1466;48.778;9.166;2023-06-22T03:09:28;23.40;99.90
2913;DHT22;1466;48.778;9.166;2023-06-22T03:11:54;23.30;99.90
2913;DHT22;1466;48.778;9.166;2023-06-22T03:14:20;23.30;99.90
2913;DHT22;1466;48.778;9.166;2023-06-22T03:16:46;23.20;99.90
2913;DHT22;1466;48.778;9.166;2023-06-22T03:19:11;23.20;99.90
2913;DHT22;1466;48.778;9.166;2023-06-22T03:21:38;23.20;99.90
2913;DHT22;1466;48.778;9.166;2023-06-22T03:24:04;23.20;99.90
2913;DHT22;1466;48.778;9.166;2023-06-22T03:26:30;23.20;99.90
2913;DHT22;1466;48.778;9.166;2023-06-22T03:28:56;23.30;99.90
2913;DHT22;1466;48.778;9.166;2023-06-22T03:31:22;23.20;99.90
2913;DHT22;1466;48.778;9.166;2023-06-22T03:33:48;23.30;99.90
2913;DHT22;1466;48.778;9.166;2023-06-22T03:36:18;23.40;99.90
2913;DHT22;1466;48.778;9.166;2023-06-22T03:38:48;23.30;99.90
2913;DHT22;1466;48.778;9.166;2023-06-22T03:41:14;23.30;99.90
2913;DHT22;1466;48.778;9.166;2023-06-22T03:43:40;23.30;99.90
2913;DHT22;1466;48.778;9.166;2023-06-22T03:46:06;23.30;99.90
2913;DHT22;1466;48.778;9.166;2023-06-22T03:48:32;23.40;99.90
2913;DHT22;1466;48.778;9.166;2023-06-22T03:50:59;23.40;99.90
2913;DHT22;1466;48.778;9.166;2023-06-22T03:53:25;23.40;99.90
2913;DHT22;1466;48.778;9.166;2023-06-22T03:55:52;23.40;99.90
2913;DHT22;1466;48.778;9.166;2023-06-22T03:58:21;23.40;99.90
2913;DHT22;1466;48.778;9.166;2023-06-22T04:00:51;23.40;99.90
2913;DHT22;1466;48.778;9.166;2023-06-22T04:03:17;23.40;99.90
2913;DHT22;1466;48.778;9.166;2023-06-22T04:05:46;23.30;99.90
2913;DHT22;1466;48.778;9.166;2023-06-22T04:08:13;23.30;99.90
2913;DHT22;1466;48.778;9.166;2023-06-22T04:10:39;23.30;99.90
2913;DHT22;1466;48.778;9.166;2023-06-22T04:13:06;23.30;99.90
2913;DHT22;1466;48.778;9.166;2023-06-22T04:15:32;23.30;99.90
2913;DHT22;1466;48.778;9.166;2023-06-22T04:17:58;23.40;99.90
2913;DHT22;1466;48.778;9.166;2023-06-22T04:20:23;23.40;99.90
2913;DHT22;1466;48.778;9.166;2023-06-22T04:22:55;23.40;99.90
2913;DHT22;1466;48.778;9.166;2023-06-22T04:25:21;23.50;99.90
2913;DHT22;1466;48.778;9.166;2023-06-22T04:27:47;23.40;99.90
2913;DHT22;1466;48.778;9.166;2023-06-22T04:30:13;23.30;99.90
2913;DHT22;1466;48.778;9.166;2023-06-22T04:32:42;23.20;99.90
2913;DHT22;1466;48.778;9.166;2023-06-22T04:35:08;23.30;99.90
2913;DHT22;1466;48.778;9.166;2023-06-22T04:37:34;23.30;99.90
2913;DHT22;1466;48.778;9.166;2023-06-22T04:40:00;23.40;99.90
2913;DHT22;1466;48.778;9.166;2023-06-22T04:42:28;23.50;99.90
2913;DHT22;1466;48.778;9.166;2023-06-22T04:44:54;23.50;99.90
2913;DHT22;1466;48.778;9.166;2023-06-22T04:47:20;23.60;99.90
2913;DHT22;1466;48.778;9.166;2023-06-22T04:49:46;23.60;99.90
2913;DHT22;1466;48.778;9.166;2023-06-22T04:52:13;23.60;99.90
2913;DHT22;1466;48.778;9.166;2023-06-22T04:54:40;23.60;99.90
2913;DHT22;1466;48.778;9.166;2023-06-22T04:57:13;23.60;99.90
2913;DHT22;1466;48.778;9.166;2023-06-22T04:59:39;23.50;99.90
2913;DHT22;1466;48.778;9.166;2023-06-22T05:02:07;23.60;99.90
2913;DHT22;1466;48.778;9.166;2023-06-22T05:04:34;23.70;99.90
2913;DHT22;1466;48.778;9.166;2023-06-22T05:07:02;23.70;99.90
2913;DHT22;1466;48.778;9.166;2023-06-22T05:09:28;23.80;99.90
2913;DHT22;1466;48.778;9.166;2023-06-22T05:11:54;23.90;99.90
2913;DHT22;1466;48.778;9.166;2023-06-22T05:14:19;24.00;99.90
2913;DHT22;1466;48.778;9.166;2023-06-22T05:16:45;24.00;99.90
2913;DHT22;1466;48.778;9.166;2023-06-22T05:19:11;24.00;99.90
2913;DHT22;1466;48.778;9.166;2023-06-22T05:21:37;24.00;99.90
2913;DHT22;1466;48.778;9.166;2023-06-22T05:24:03;24.00;99.90
2913;DHT22;1466;48.778;9.166;2023-06-22T05:26:30;24.20;99.90
2913;DHT22;1466;48.778;9.166;2023-06-22T05:28:57;24.30;99.90
2913;DHT22;1466;48.778;9.166;2023-06-22T05:31:23;24.40;99.90
2913;DHT22;1466;48.778;9.166;2023-06-22T05:33:52;24.40;99.90
2913;DHT22;1466;48.778;9.166;2023-06-22T05:36:18;24.40;99.90
2913;DHT22;1466;48.778;9.166;2023-06-22T05:38:50;24.40;99.90
2913;DHT22;1466;48.778;9.166;2023-06-22T05:41:16;24.30;99.90
2913;DHT22;1466;48.778;9.166;2023-06-22T05:43:41;24.30;99.90
2913;DHT22;1466;48.778;9.166;2023-06-22T05:46:07;24.30;99.90
2913;DHT22;1466;48.778;9.166;2023-06-22T05:48:33;24.40;99.90
2913;DHT22;1466;48.778;9.166;2023-06-22T05:50:58;24.40;99.90
2913;DHT22;1466;48.778;9.166;2023-06-22T05:53:24;24.30;99.90
2913;DHT22;1466;48.778;9.166;2023-06-22T05:55:50;24.30;99.90
2913;DHT22;1466;48.778;9.166;2023-06-22T05:58:15;24.30;99.90
2913;DHT22;1466;48.778;9.166;2023-06-22T06:00:42;24.30;99.90
2913;DHT22;1466;48.778;9.166;2023-06-22T06:03:09;24.30;99.90
2913;DHT22;1466;48.778;9.166;2023-06-22T06:05:35;24.40;99.90
2913;DHT22;1466;48.778;9.166;2023-06-22T06:08:03;24.40;99.90
2913;DHT22;1466;48.778;9.166;2023-06-22T06:10:30;24.40;99.90
2913;DHT22;1466;48.778;9.166;2023-06-22T06:12:56;24.40;99.90
2913;DHT22;1466;48.778;9.166;2023-06-22T06:15:22;24.40;99.90
2913;DHT22;1466;48.778;9.166;2023-06-22T06:17:48;24.40;99.90
2913;DHT22;1466;48.778;9.166;2023-06-22T06:20:15;24.50;99.90
2913;DHT22;1466;48.778;9.166;2023-06-22T06:22:41;24.50;99.90
2913;DHT22;1466;48.778;9.166;2023-06-22T06:25:08;24.40;99.90
2913;DHT22;1466;48.778;9.166;2023-06-22T06:27:34;24.40;99.90
2913;DHT22;1466;48.778;9.166;2023-06-22T06:29:59;24.50;99.90
2913;DHT22;1466;48.778;9.166;2023-06-22T06:32:25;24.50;99.90
2913;DHT22;1466;48.778;9.166;2023-06-22T06:34:50;24.60;99.90
2913;DHT22;1466;48.778;9.166;2023-06-22T06:37:17;24.60;99.90
2913;DHT22;1466;48.778;9.166;2023-06-22T06:39:44;24.80;99.90
2913;DHT22;1466;48.778;9.166;2023-06-22T06:42:09;24.80;99.90
2913;DHT22;1466;48.778;9.166;2023-06-22T06:44:36;24.90;99.90
2913;DHT22;1466;48.778;9.166;2023-06-22T06:47:03;24.90;99.90
2913;DHT22;1466;48.778;9.166;2023-06-22T06:49:29;25.10;99.90
2913;DHT22;1466;48.778;9.166;2023-06-22T06:51:54;25.10;99.90
2913;DHT22;1466;48.778;9.166;2023-06-22T06:54:21;25.10;99.90
2913;DHT22;1466;48.778;9.166;2023-06-22T06:56:47;25.10;99.90
2913;DHT22;1466;48.778;9.166;2023-06-22T06:59:14;25.20;99.90
2913;DHT22;1466;48.778;9.166;2023-06-22T07:01:41;25.30;99.90
2913;DHT22;1466;48.778;9.166;2023-06-22T07:04:07;25.30;99.90
2913;DHT22;1466;48.778;9.166;2023-06-22T07:06:32;25.30;99.90
2913;DHT22;1466;48.778;9.166;2023-06-22T07:08:59;25.40;99.90
2913;DHT22;1466;48.778;9.166;2023-06-22T07:11:25;25.40;99.90
2913;DHT22;1466;48.778;9.166;2023-06-22T07:13:50;25.60;99.90
2913;DHT22;1466;48.778;9.166;2023-06-22T07:16:16;25.70;99.90
2913;DHT22;1466;48.778;9.166;2023-06-22T07:18:41;25.80;99.90
2913;DHT22;1466;48.778;9.166;2023-06-22T07:21:07;25.80;99.90
2913;DHT22;1466;48.778;9.166;2023-06-22T07:23:33;25.80;99.90
2913;DHT22;1466;48.778;9.166;2023-06-22T07:25:59;25.90;99.90
2913;DHT22;1466;48.778;9.166;2023-06-22T07:28:27;26.00;99.90
2913;DHT22;1466;48.778;9.166;2023-06-22T07:30:53;26.10;99.90
2913;DHT22;1466;48.778;9.166;2023-06-22T07:33:19;26.20;99.90
2913;DHT22;1466;48.778;9.166;2023-06-22T07:35:45;26.30;99.90
2913;DHT22;1466;48.778;9.166;2023-06-22T07:38:12;26.40;99.90
2913;DHT22;1466;48.778;9.166;2023-06-22T07:40:37;26.50;99.90
2913;DHT22;1466;48.778;9.166;2023-06-22T07:43:03;26.50;99.90
2913;DHT22;1466;48.778;9.166;2023-06-22T07:45:29;26.50;99.90
2913;DHT22;1466;48.778;9.166;2023-06-22T07:47:55;26.60;99.90
2913;DHT22;1466;48.778;9.166;2023-06-22T07:50:20;26.70;99.90
2913;DHT22;1466;48.778;9.166;2023-06-22T07:52:46;26.80;99.90
2913;DHT22;1466;48.778;9.166;2023-06-22T07:55:13;26.90;99.90
2913;DHT22;1466;48.778;9.166;2023-06-22T07:57:39;26.90;99.90
2913;DHT22;1466;48.778;9.166;2023-06-22T08:00:06;26.90;99.90
2913;DHT22;1466;48.778;9.166;2023-06-22T08:02:38;27.00;99.90
2913;DHT22;1466;48.778;9.166;2023-06-22T08:05:04;27.10;99.90
2913;DHT22;1466;48.778;9.166;2023-06-22T08:07:30;27.10;99.90
2913;DHT22;1466;48.778;9.166;2023-06-22T08:09:58;27.20;99.90
2913;DHT22;1466;48.778;9.166;2023-06-22T08:12:24;27.20;99.90
2913;DHT22;1466;48.778;9.166;2023-06-22T08:14:49;27.30;99.90
2913;DHT22;1466;48.778;9.166;2023-06-22T08:17:15;27.30;99.90
2913;DHT22;1466;48.778;9.166;2023-06-22T08:19:41;27.40;99.90
2913;DHT22;1466;48.778;9.166;2023-06-22T08:22:07;27.50;99.90
2913;DHT22;1466;48.778;9.166;2023-06-22T08:24:32;27.60;99.70
2913;DHT22;1466;48.778;9.166;2023-06-22T08:26:58;27.60;99.50
2913;DHT22;1466;48.778;9.166;2023-06-22T08:29:24;27.70;99.50
2913;DHT22;1466;48.778;9.166;2023-06-22T08:31:50;28.00;99.30
2913;DHT22;1466;48.778;9.166;2023-06-22T08:34:15;28.20;98.90
2913;DHT22;1466;48.778;9.166;2023-06-22T08:36:41;28.40;98.30
2913;DHT22;1466;48.778;9.166;2023-06-22T08:39:08;28.50;97.80
2913;DHT22;1466;48.778;9.166;2023-06-22T08:41:34;28.50;97.70
2913;DHT22;1466;48.778;9.166;2023-06-22T08:43:59;28.60;97.50
2913;DHT22;1466;48.778;9.166;2023-06-22T08:46:25;28.80;97.30
2913;DHT22;1466;48.778;9.166;2023-06-22T08:48:56;28.90;97.00
2913;DHT22;1466;48.778;9.166;2023-06-22T08:51:23;29.20;96.80
2913;DHT22;1466;48.778;9.166;2023-06-22T08:53:49;29.30;96.60
2913;DHT22;1466;48.778;9.166;2023-06-22T08:56:14;29.50;96.00
2913;DHT22;1466;48.778;9.166;2023-06-22T08:58:40;29.60;95.60
2913;DHT22;1466;48.778;9.166;2023-06-22T09:01:06;29.80;95.40
2913;DHT22;1466;48.778;9.166;2023-06-22T09:03:32;30.00;95.00
2913;DHT22;1466;48.778;9.166;2023-06-22T09:05:58;30.10;94.70
2913;DHT22;1466;48.778;9.166;2023-06-22T09:08:24;30.10;94.40
2913;DHT22;1466;48.778;9.166;2023-06-22T09:10:49;30.10;94.20
2913;DHT22;1466;48.778;9.166;2023-06-22T09:13:15;30.10;94.00
2913;DHT22;1466;48.778;9.166;2023-06-22T09:15:41;30.10;93.90
2913;DHT22;1466;48.778;9.166;2023-06-22T09:18:06;30.10;94.00
2913;DHT22;1466;48.778;9.166;2023-06-22T09:20:35;30.10;93.90
2913;DHT22;1466;48.778;9.166;2023-06-22T09:23:00;30.20;93.70
2913;DHT22;1466;48.778;9.166;2023-06-22T09:25:26;30.20;93.30
2913;DHT22;1466;48.778;9.166;2023-06-22T09:27:52;30.30;93.10
2913;DHT22;1466;48.778;9.166;2023-06-22T09:30:17;30.40;92.80
2913;DHT22;1466;48.778;9.166;2023-06-22T09:32:43;30.40;92.90
2913;DHT22;1466;48.778;9.166;2023-06-22T09:35:09;30.40;92.70
2913;DHT22;1466;48.778;9.166;2023-06-22T09:37:35;30.30;92.50
2913;DHT22;1466;48.778;9.166;2023-06-22T09:40:01;30.40;92.50
2913;DHT22;1466;48.778;9.166;2023-06-22T09:42:30;30.50;92.50
2913;DHT22;1466;48.778;9.166;2023-06-22T09:44:56;31.20;91.60
2913;DHT22;1466;48.778;9.166;2023-06-22T09:47:21;32.10;90.50
2913;DHT22;1466;48.778;9.166;2023-06-22T09:49:47;32.90;89.20
2913;DHT22;1466;48.778;9.166;2023-06-22T09:52:12;33.40;87.20
2913;DHT22;1466;48.778;9.166;2023-06-22T09:54:38;33.50;85.60
2913;DHT22;1466;48.778;9.166;2023-06-22T09:57:04;33.40;84.80
2913;DHT22;1466;48.778;9.166;2023-06-22T09:59:29;33.20;84.40
2913;DHT22;1466;48.778;9.166;2023-06-22T10:01:55;33.10;84.50
2913;DHT22;1466;48.778;9.166;2023-06-22T10:04:21;32.90;84.70
2913;DHT22;1466;48.778;9.166;2023-06-22T10:06:46;32.90;85.20
2913;DHT22;1466;48.778;9.166;2023-06-22T10:09:13;32.60;85.50
2913;DHT22;1466;48.778;9.166;2023-06-22T10:11:38;32.20;86.20
2913;DHT22;1466;48.778;9.166;2023-06-22T10:14:04;32.00;87.20
2913;DHT22;1466;48.778;9.166;2023-06-22T10:16:32;31.80;87.80
2913;DHT22;1466;48.778;9.166;2023-06-22T10:18:59;31.80;88.20
2913;DHT22;1466;48.778;9.166;2023-06-22T10:21:24;31.90;88.30
2913;DHT22;1466;48.778;9.166;2023-06-22T10:23:52;32.00;88.20
2913;DHT22;1466;48.778;9.166;2023-06-22T10:26:18;32.00;87.90
2913;DHT22;1466;48.778;9.166;2023-06-22T10:28:43;32.10;87.80
2913;DHT22;1466;48.778;9.166;2023-06-22T10:31:09;32.20;87.70
2913;DHT22;1466;48.778;9.166;2023-06-22T10:33:34;32.20;87.40
2913;DHT22;1466;48.778;9.166;2023-06-22T10:36:00;32.40;87.10
2913;DHT22;1466;48.778;9.166;2023-06-22T10:38:25;32.40;86.50
2913;DHT22;1466;48.778;9.166;2023-06-22T10:40:51;32.40;86.30
2913;DHT22;1466;48.778;9.166;2023-06-22T10:43:16;32.50;86.20
2913;DHT22;1466;48.778;9.166;2023-06-22T10:45:42;32.50;85.90
2913;DHT22;1466;48.778;9.166;2023-06-22T10:48:07;32.60;85.80
2913;DHT22;1466;48.778;9.166;2023-06-22T10:50:33;32.50;85.30
2913;DHT22;1466;48.778;9.166;2023-06-22T10:52:59;32.50;84.60
2913;DHT22;1466;48.778;9.166;2023-06-22T10:55:24;32.50;84.60
2913;DHT22;1466;48.778;9.166;2023-06-22T10:57:50;32.50;84.20
2913;DHT22;1466;48.778;9.166;2023-06-22T11:00:16;32.50;84.60
2913;DHT22;1466;48.778;9.166;2023-06-22T11:02:42;32.40;84.00
2913;DHT22;1466;48.778;9.166;2023-06-22T11:05:08;32.30;83.90
2913;DHT22;1466;48.778;9.166;2023-06-22T11:07:33;32.30;83.90
2913;DHT22;1466;48.778;9.166;2023-06-22T11:09:59;32.30;84.30
2913;DHT22;1466;48.778;9.166;2023-06-22T11:12:24;32.30;84.70
2913;DHT22;1466;48.778;9.166;2023-06-22T11:14:50;32.30;84.80
2913;DHT22;1466;48.778;9.166;2023-06-22T11:17:17;32.40;84.90
2913;DHT22;1466;48.778;9.166;2023-06-22T11:19:44;32.40;84.80
2913;DHT22;1466;48.778;9.166;2023-06-22T11:22:10;32.40;84.80
2913;DHT22;1466;48.778;9.166;2023-06-22T11:24:35;32.30;85.10
2913;DHT22;1466;48.778;9.166;2023-06-22T11:27:01;32.30;85.30
2913;DHT22;1466;48.778;9.166;2023-06-22T11:29:26;32.30;85.40
2913;DHT22;1466;48.778;9.166;2023-06-22T11:31:52;32.30;85.50
2913;DHT22;1466;48.778;9.166;2023-06-22T11:34:17;32.30;85.30
2913;DHT22;1466;48.778;9.166;2023-06-22T11:36:44;32.20;85.30
2913;DHT22;1466;48.778;9.166;2023-06-22T11:39:10;32.20;85.30
2913;DHT22;1466;48.778;9.166;2023-06-22T11:41:37;32.20;85.30
2913;DHT22;1466;48.778;9.166;2023-06-22T11:44:02;32.30;85.30
2913;DHT22;1466;48.778;9.166;2023-06-22T11:46:29;32.40;85.10
2913;DHT22;1466;48.778;9.166;2023-06-22T11:48:55;32.40;85.30
2913;DHT22;1466;48.778;9.166;2023-06-22T11:51:21;32.40;85.50
2913;DHT22;1466;48.778;9.166;2023-06-22T11:53:46;32.50;85.30
2913;DHT22;1466;48.778;9.166;2023-06-22T11:56:12;32.60;85.30
2913;DHT22;1466;48.778;9.166;2023-06-22T11:58:38;32.70;85.30
2913;DHT22;1466;48.778;9.166;2023-06-22T12:01:03;32.60;85.30
2913;DHT22;1466;48.778;9.166;2023-06-22T12:03:30;32.60;85.00
2913;DHT22;1466;48.778;9.166;2023-06-22T12:05:56;32.60;84.90
2913;DHT22;1466;48.778;9.166;2023-06-22T12:08:21;32.60;85.00
2913;DHT22;1466;48.778;9.166;2023-06-22T12:10:48;32.50;85.10
2913;DHT22;1466;48.778;9.166;2023-06-22T12:13:15;32.50;85.10
2913;DHT22;1466;48.778;9.166;2023-06-22T12:15:40;32.50;85.40
2913;DHT22;1466;48.778;9.166;2023-06-22T12:18:06;32.40;85.80
2913;DHT22;1466;48.778;9.166;2023-06-22T12:20:32;32.40;85.90
2913;DHT22;1466;48.778;9.166;2023-06-22T12:22:58;32.40;86.10
2913;DHT22;1466;48.778;9.166;2023-06-22T12:25:24;32.50;86.20
2913;DHT22;1466;48.778;9.166;2023-06-22T12:27:50;32.40;86.80
2913;DHT22;1466;48.778;9.166;2023-06-22T12:30:16;32.40;86.30
2913;DHT22;1466;48.778;9.166;2023-06-22T12:32:42;32.40;86.30
2913;DHT22;1466;48.778;9.166;2023-06-22T12:35:08;32.40;86.20
2913;DHT22;1466;48.778;9.166;2023-06-22T12:37:40;32.50;86.10
2913;DHT22;1466;48.778;9.166;2023-06-22T12:40:06;32.40;85.90
2913;DHT22;1466;48.778;9.166;2023-06-22T12:42:32;32.30;86.00
2913;DHT22;1466;48.778;9.166;2023-06-22T12:44:57;32.20;86.10
2913;DHT22;1466;48.778;9.166;2023-06-22T12:47:23;32.10;86.30
2913;DHT22;1466;48.778;9.166;2023-06-22T12:49:48;32.10;86.60
2913;DHT22;1466;48.778;9.166;2023-06-22T12:52:14;32.10;86.90
2913;DHT22;1466;48.778;9.166;2023-06-22T12:54:39;32.10;86.90
2913;DHT22;1466;48.778;9.166;2023-06-22T12:57:05;32.10;87.10
2913;DHT22;1466;48.778;9.166;2023-06-22T12:59:31;32.20;87.40
2913;DHT22;1466;48.778;9.166;2023-06-22T13:01:56;32.10;87.30
2913;DHT22;1466;48.778;9.166;2023-06-22T13:04:22;32.10;87.40
2913;DHT22;1466;48.778;9.166;2023-06-22T13:06:48;32.10;87.60
2913;DHT22;1466;48.778;9.166;2023-06-22T13:09:14;32.10;87.70
2913;DHT22;1466;48.778;9.166;2023-06-22T13:11:40;32.00;87.60
2913;DHT22;1466;48.778;9.166;2023-06-22T13:14:06;32.00;87.70
2913;DHT22;1466;48.778;9.166;2023-06-22T13:16:32;32.00;87.70
2913;DHT22;1466;48.778;9.166;2023-06-22T13:18:57;32.00;87.70
2913;DHT22;1466;48.778;9.166;2023-06-22T13:21:23;32.10;88.00
2913;DHT22;1466;48.778;9.166;2023-06-22T13:23:48;32.00;88.00
2913;DHT22;1466;48.778;9.166;2023-06-22T13:26:14;32.10;88.20
2913;DHT22;1466;48.778;9.166;2023-06-22T13:28:40;32.20;88.30
2913;DHT22;1466;48.778;9.166;2023-06-22T13:31:05;32.30;88.00
2913;DHT22;1466;48.778;9.166;2023-06-22T13:33:31;32.30;87.70
2913;DHT22;1466;48.778;9.166;2023-06-22T13:35:56;32.30;87.50
2913;DHT22;1466;48.778;9.166;2023-06-22T13:38:22;32.50;87.50
2913;DHT22;1466;48.778;9.166;2023-06-22T13:40:48;32.60;87.30
2913;DHT22;1466;48.778;9.166;2023-06-22T13:43:14;32.70;86.90
2913;DHT22;1466;48.778;9.166;2023-06-22T13:45:41;32.70;86.50
2913;DHT22;1466;48.778;9.166;2023-06-22T13:48:07;32.70;86.60
2913;DHT22;1466;48.778;9.166;2023-06-22T13:50:33;32.70;86.40
2913;DHT22;1466;48.778;9.166;2023-06-22T13:52:58;32.70;86.50
2913;DHT22;1466;48.778;9.166;2023-06-22T13:55:24;32.70;86.00
2913;DHT22;1466;48.778;9.166;2023-06-22T13:57:50;32.70;85.40
2913;DHT22;1466;48.778;9.166;2023-06-22T14:00:17;32.60;85.30
2913;DHT22;1466;48.778;9.166;2023-06-22T14:02:42;32.70;85.20
2913;DHT22;1466;48.778;9.166;2023-06-22T14:05:08;32.70;84.90
2913;DHT22;1466;48.778;9.166;2023-06-22T14:07:34;32.70;84.60
2913;DHT22;1466;48.778;9.166;2023-06-22T14:10:00;32.80;84.50
2913;DHT22;1466;48.778;9.166;2023-06-22T14:12:26;32.90;84.30
2913;DHT22;1466;48.778;9.166;2023-06-22T14:14:51;32.90;84.10
2913;DHT22;1466;48.778;9.166;2023-06-22T14:17:17;33.00;84.00
2913;DHT22;1466;48.778;9.166;2023-06-22T14:19:43;33.10;83.70
2913;DHT22;1466;48.778;9.166;2023-06-22T14:22:08;33.20;82.90
2913;DHT22;1466;48.778;9.166;2023-06-22T14:24:34;33.30;82.30
2913;DHT22;1466;48.778;9.166;2023-06-22T14:27:00;33.30;81.70
2913;DHT22;1466;48.778;9.166;2023-06-22T14:29:28;33.40;81.50
2913;DHT22;1466;48.778;9.166;2023-06-22T14:31:53;33.30;81.10
2913;DHT22;1466;48.778;9.166;2023-06-22T14:34:21;33.20;80.00
2913;DHT22;1466;48.778;9.166;2023-06-22T14:36:47;33.10;78.50
2913;DHT22;1466;48.778;9.166;2023-06-22T14:39:12;33.10;78.10
2913;DHT22;1466;48.778;9.166;2023-06-22T14:41:38;33.20;78.20
2913;DHT22;1466;48.778;9.166;2023-06-22T14:44:03;33.30;77.10
2913;DHT22;1466;48.778;9.166;2023-06-22T14:46:29;33.50;76.50
2913;DHT22;1466;48.778;9.166;2023-06-22T14:48:54;33.60;75.50
2913;DHT22;1466;48.778;9.166;2023-06-22T14:51:20;33.60;75.00
2913;DHT22;1466;48.778;9.166;2023-06-22T14:53:46;33.60;74.70
2913;DHT22;1466;48.778;9.166;2023-06-22T14:56:12;33.60;74.90
2913;DHT22;1466;48.778;9.166;2023-06-22T14:58:41;33.60;73.70
2913;DHT22;1466;48.778;9.166;2023-06-22T15:01:11;33.50;73.00
2913;DHT22;1466;48.778;9.166;2023-06-22T15:03:37;33.50;72.90
2913;DHT22;1466;48.778;9.166;2023-06-22T15:06:03;33.30;68.30
2913;DHT22;1466;48.778;9.166;2023-06-22T15:08:29;33.20;66.50
2913;DHT22;1466;48.778;9.166;2023-06-22T15:10:54;33.10;64.20
2913;DHT22;1466;48.778;9.166;2023-06-22T15:13:21;33.10;64.80
2913;DHT22;1466;48.778;9.166;2023-06-22T15:15:48;33.10;64.00
2913;DHT22;1466;48.778;9.166;2023-06-22T15:18:16;33.20;63.10
2913;DHT22;1466;48.778;9.166;2023-06-22T15:20:43;33.20;62.80
2913;DHT22;1466;48.778;9.166;2023-06-22T15:23:13;33.30;62.50
2913;DHT22;1466;48.778;9.166;2023-06-22T15:25:38;33.30;62.20
2913;DHT22;1466;48.778;9.166;2023-06-22T15:28:04;33.40;62.70
2913;DHT22;1466;48.778;9.166;2023-06-22T15:30:30;33.50;62.90
2913;DHT22;1466;48.778;9.166;2023-06-22T15:32:56;33.40;63.30
2913;DHT22;1466;48.778;9.166;2023-06-22T15:35:22;33.30;62.40
2913;DHT22;1466;48.778;9.166;2023-06-22T15:37:48;33.30;61.90
2913;DHT22;1466;48.778;9.166;2023-06-22T15:40:14;33.40;61.20
2913;DHT22;1466;48.778;9.166;2023-06-22T15:42:39;33.40;61.10
2913;DHT22;1466;48.778;9.166;2023-06-22T15:45:05;33.50;60.40
2913;DHT22;1466;48.778;9.166;2023-06-22T15:47:31;33.50;60.10
2913;DHT22;1466;48.778;9.166;2023-06-22T15:49:56;33.60;59.80
2913;DHT22;1466;48.778;9.166;2023-06-22T15:52:25;33.70;59.30
2913;DHT22;1466;48.778;9.166;2023-06-22T15:54:50;33.70;59.80
2913;DHT22;1466;48.778;9.166;2023-06-22T15:57:16;33.80;59.90
2913;DHT22;1466;48.778;9.166;2023-06-22T15:59:42;33.70;59.90